ADDS TAF Data INFO
IDs: Format: Raw Decoded Include METARs

Data at: 0319 UTC 16 Dec 2017

METAR for:KHSV (Huntsville Intl, AL, US)
Text:KHSV 160253Z 09003KT 9SM CLR M01/M04 A3024 RMK AO2 SLP243 T10111039 53009
Temperature: -1.1°C ( 30°F)
Dewpoint: -3.9°C ( 25°F) [RH = 81%]
Pressure (altimeter):30.24 inches Hg (1024.1 mb) [Sea level pressure: 1024.3 mb]
Winds:from the E (90 degrees) at 3 MPH (3 knots; 1.5 m/s)
Visibility: 9 sm ( 14 km)
Ceiling:at least 12,000 feet AGL
Clouds:sky clear below 12,000 feet AGL

TAF for:KHSV (Huntsville Intl, AL, US) issued at 2321 UTC 15 Dec 2017
Text:KHSV 152321Z 1600/1624 VRB03KT P6SM SCT250
Forecast period:0000 to 1500 UTC 16 December 2017
Forecast type:FROM: standard forecast or significant change
Winds:variable direction winds at 3 MPH (3 knots; 1.5 m/s)
Visibility:6 or more sm (10+ km)
Ceiling:at least 12,000 feet AGL
Clouds: scattered clouds at 25000 feet AGL
Text:FM161500 20007KT P6SM SCT250
Forecast period:1500 UTC 16 December 2017 to 0000 UTC 17 December 2017
Forecast type:FROM: standard forecast or significant change
Winds:from the SSW (200 degrees) at 8 MPH (7 knots; 3.6 m/s)
Visibility:6 or more sm (10+ km)
Ceiling:at least 12,000 feet AGL
Clouds: scattered clouds at 25000 feet AGL